Airfield :
LOGIN :

Register | Disclaimer

   EN    FR    IT 

 










Legend :    VFR   Marginal VFR   IFR   Intensive IFR   Very Intensive IFR
Visi :
Ceiling :
>= 8 km
>= 3000ft
5 to 8 km
1000 to 3000 ft
1500m to 5 km
500 to 1000 ft
800 to 1500m
200 to 500 ft
< 800m
< 200 ft
Symbols :   Thunderstorms  Fog  Heavy snow  Heavy precipitations  Wind > 20 kt
SIGMETs :     Misc.  Thunderstorms  Icing  Turbulence  Mountain Waves  Volcanic Ashes






- Airport Elevation : 1090 ft
- IATA code : CFE


LFLC - Clermont-Ferrand Auvergne

CURRENT METAR :
  • 210230Z AUTO 15005KT 9999 SCT046 SCT052 10/08 Q1014 TEMPO 3000 BR BKN006

EXPIRED METARs :
  • 210200Z AUTO 14007KT 9999 FEW042 11/09 Q1013 TEMPO 3000 BR BKN006
  • 210130Z AUTO 19010KT 9999 SCT044 BKN052 11/09 Q1013 TEMPO 3000 BR BKN006
  • 210100Z AUTO 20008KT 9999 FEW042 BKN050 12/09 Q1013 NOSIG
  • 210030Z AUTO 20008KT 9999 FEW045 BKN052 12/09 Q1012 NOSIG
  • 210000Z AUTO 20006KT 9999 FEW050 SCT100 12/10 Q1012 NOSIG

TAF TAF LFLC
Valid from the 20 at 21:00 until the 21 at 21:00 UTC


202000Z 2021/2121 18012KT 9999 SCT040
PROB40
TEMPO 2021/2024 4000 SHRA BKN040TCU
BECMG 2101/2103 VRB02KT
PROB40
TEMPO 2103/2108 3000 BR
PROB30
TEMPO 2103/2108 BKN006
BECMG 2115/2118 BKN025
PROB30
TEMPO 2119/2121 BKN012
ATIS : +33 4 73 62 74 38



MET'MAP, your aeronautical weather chart ! - Copyright ORBIFLY December 2007 - Disclaimer

ORBIFLY MET'MAP TEAM :

Programming & Development : Alexandra Zaïnal
Concept & Development : Baudouin d'Aumeries
Co-Development & Prog : Marc-Olivier Méhu
Technical & hardware support : Manuel Goepfert

Contact : metmap@orbifly.com




SOURCES & CREDITS :

   NOAA